YKF weather

Waterloo Airport
Kitchener, Ontario, Canada

Public forecast

Using degrees Celsius for public forecast. Weather courtesy of forecast.io.

Current aviation weather report (METAR) for Waterloo Airport

Retrieved 2019/11/14 23:00 UTC (15 minutes ago):

CYKF 142300Z AUTO 23010G16KT 9SM OVC022 M01/M05 A3014 RMK SLP222

Aviation forecast (TAF) for Waterloo Airport

Retrieved 2019/11/14 20:42 UTC (3 hours ago):

TAF CYKF 141938Z 1420/1508 24010G20KT P6SM SCT020 OVC040 TEMPO 1420/1502 BKN020 OVC040 BECMG 1422/1424 24012KT FM150200 24012KT P6SM SCT020 TEMPO 1502/1506 BKN020 FM150600 25015KT P6SM BKN015 RMK FCST BASED ON AUTO OBS NXT FCST BY 150200Z